sensor_id;sensor_type;location;lat;lon;timestamp;temperature;humidity
45283;DHT22;31023;44.994;1.796;2024-03-23T00:55:04;13.90;89.00
45283;DHT22;31023;44.994;1.796;2024-03-23T00:57:29;13.70;89.40
45283;DHT22;31023;44.994;1.796;2024-03-23T00:59:55;13.60;90.00
45283;DHT22;31023;44.994;1.796;2024-03-23T01:02:20;13.60;90.50
45283;DHT22;31023;44.994;1.796;2024-03-23T01:04:46;13.60;90.90
45283;DHT22;31023;44.994;1.796;2024-03-23T01:07:11;13.60;91.70
45283;DHT22;31023;44.994;1.796;2024-03-23T01:09:37;13.60;92.20
45283;DHT22;31023;44.994;1.796;2024-03-23T01:12:04;13.50;93.40
45283;DHT22;31023;44.994;1.796;2024-03-23T01:14:30;13.50;93.50
45283;DHT22;31023;44.994;1.796;2024-03-23T01:16:55;13.40;93.70
45283;DHT22;31023;44.994;1.796;2024-03-23T01:19:21;13.40;93.40
45283;DHT22;31023;44.994;1.796;2024-03-23T01:21:46;13.30;93.00
45283;DHT22;31023;44.994;1.796;2024-03-23T01:24:12;13.30;92.00
45283;DHT22;31023;44.994;1.796;2024-03-23T01:26:38;13.30;91.40
45283;DHT22;31023;44.994;1.796;2024-03-23T01:29:03;13.30;91.20
45283;DHT22;31023;44.994;1.796;2024-03-23T01:31:29;13.00;90.80
45283;DHT22;31023;44.994;1.796;2024-03-23T01:33:54;13.00;90.90
45283;DHT22;31023;44.994;1.796;2024-03-23T01:36:20;12.90;90.70
45283;DHT22;31023;44.994;1.796;2024-03-23T01:38:46;12.90;90.60
45283;DHT22;31023;44.994;1.796;2024-03-23T01:41:11;12.90;90.30
45283;DHT22;31023;44.994;1.796;2024-03-23T01:43:37;13.00;90.00
45283;DHT22;31023;44.994;1.796;2024-03-23T01:46:02;13.00;90.10
45283;DHT22;31023;44.994;1.796;2024-03-23T01:48:28;12.90;90.10
45283;DHT22;31023;44.994;1.796;2024-03-23T01:50:53;12.90;90.20
45283;DHT22;31023;44.994;1.796;2024-03-23T01:53:19;13.00;89.30
45283;DHT22;31023;44.994;1.796;2024-03-23T01:55:47;13.10;88.90
45283;DHT22;31023;44.994;1.796;2024-03-23T01:58:13;12.90;89.50
45283;DHT22;31023;44.994;1.796;2024-03-23T02:00:38;12.80;89.70
45283;DHT22;31023;44.994;1.796;2024-03-23T02:03:21;12.80;89.60
45283;DHT22;31023;44.994;1.796;2024-03-23T02:05:47;12.70;89.80
45283;DHT22;31023;44.994;1.796;2024-03-23T02:08:12;12.40;90.50
45283;DHT22;31023;44.994;1.796;2024-03-23T02:10:38;12.30;90.60
45283;DHT22;31023;44.994;1.796;2024-03-23T02:13:03;12.40;90.20
45283;DHT22;31023;44.994;1.796;2024-03-23T02:15:29;12.40;90.10
45283;DHT22;31023;44.994;1.796;2024-03-23T02:17:54;12.40;90.40
45283;DHT22;31023;44.994;1.796;2024-03-23T02:20:20;12.20;90.50
45283;DHT22;31023;44.994;1.796;2024-03-23T02:22:45;12.10;90.30
45283;DHT22;31023;44.994;1.796;2024-03-23T02:25:11;12.00;90.60
45283;DHT22;31023;44.994;1.796;2024-03-23T02:27:36;12.10;90.60
45283;DHT22;31023;44.994;1.796;2024-03-23T02:30:04;11.90;90.50
45283;DHT22;31023;44.994;1.796;2024-03-23T02:32:30;11.70;91.30
45283;DHT22;31023;44.994;1.796;2024-03-23T02:34:55;11.70;91.40
45283;DHT22;31023;44.994;1.796;2024-03-23T02:37:21;11.50;91.50
45283;DHT22;31023;44.994;1.796;2024-03-23T02:39:46;11.40;91.70
45283;DHT22;31023;44.994;1.796;2024-03-23T02:42:12;11.10;92.50
45283;DHT22;31023;44.994;1.796;2024-03-23T02:44:37;11.20;92.10
45283;DHT22;31023;44.994;1.796;2024-03-23T02:47:03;11.20;92.40
45283;DHT22;31023;44.994;1.796;2024-03-23T02:49:28;11.40;92.10
45283;DHT22;31023;44.994;1.796;2024-03-23T02:51:54;11.40;92.30
45283;DHT22;31023;44.994;1.796;2024-03-23T02:54:20;11.40;92.40
45283;DHT22;31023;44.994;1.796;2024-03-23T02:56:45;11.30;92.50
45283;DHT22;31023;44.994;1.796;2024-03-23T02:59:11;11.40;92.60
45283;DHT22;31023;44.994;1.796;2024-03-23T03:01:36;11.30;92.70
45283;DHT22;31023;44.994;1.796;2024-03-23T03:04:02;11.30;92.60
45283;DHT22;31023;44.994;1.796;2024-03-23T03:06:27;11.30;92.60
45283;DHT22;31023;44.994;1.796;2024-03-23T03:08:53;11.40;92.40
45283;DHT22;31023;44.994;1.796;2024-03-23T03:11:19;11.40;92.80
45283;DHT22;31023;44.994;1.796;2024-03-23T03:13:44;11.30;92.30
45283;DHT22;31023;44.994;1.796;2024-03-23T03:16:10;11.40;92.40
45283;DHT22;31023;44.994;1.796;2024-03-23T03:18:36;11.20;92.50
45283;DHT22;31023;44.994;1.796;2024-03-23T03:21:02;11.30;92.30
45283;DHT22;31023;44.994;1.796;2024-03-23T03:23:28;11.40;92.20
45283;DHT22;31023;44.994;1.796;2024-03-23T03:25:54;11.50;92.40
45283;DHT22;31023;44.994;1.796;2024-03-23T03:28:19;11.40;92.00
45283;DHT22;31023;44.994;1.796;2024-03-23T03:30:45;11.30;92.20
45283;DHT22;31023;44.994;1.796;2024-03-23T03:33:11;11.00;92.90
45283;DHT22;31023;44.994;1.796;2024-03-23T03:35:36;11.30;92.70
45283;DHT22;31023;44.994;1.796;2024-03-23T03:38:04;11.30;92.70
45283;DHT22;31023;44.994;1.796;2024-03-23T03:40:30;11.40;92.10
45283;DHT22;31023;44.994;1.796;2024-03-23T03:42:55;11.30;92.10
45283;DHT22;31023;44.994;1.796;2024-03-23T03:45:21;11.20;92.70
45283;DHT22;31023;44.994;1.796;2024-03-23T03:47:47;11.20;92.70
45283;DHT22;31023;44.994;1.796;2024-03-23T03:50:12;11.20;92.80
45283;DHT22;31023;44.994;1.796;2024-03-23T03:52:38;11.20;92.60
45283;DHT22;31023;44.994;1.796;2024-03-23T03:55:03;11.40;92.40
45283;DHT22;31023;44.994;1.796;2024-03-23T03:57:36;11.20;92.60
45283;DHT22;31023;44.994;1.796;2024-03-23T04:00:02;11.40;92.40
45283;DHT22;31023;44.994;1.796;2024-03-23T04:02:28;11.30;92.70
45283;DHT22;31023;44.994;1.796;2024-03-23T04:04:54;11.20;93.00
45283;DHT22;31023;44.994;1.796;2024-03-23T04:07:19;11.30;92.90
45283;DHT22;31023;44.994;1.796;2024-03-23T04:09:48;11.30;93.00
45283;DHT22;31023;44.994;1.796;2024-03-23T04:12:13;11.30;93.10
45283;DHT22;31023;44.994;1.796;2024-03-23T04:14:39;11.00;93.80
45283;DHT22;31023;44.994;1.796;2024-03-23T04:17:04;11.20;93.60
45283;DHT22;31023;44.994;1.796;2024-03-23T04:19:30;11.20;93.90
45283;DHT22;31023;44.994;1.796;2024-03-23T04:21:55;11.20;94.10
45283;DHT22;31023;44.994;1.796;2024-03-23T04:24:21;11.20;94.00
45283;DHT22;31023;44.994;1.796;2024-03-23T04:26:47;11.20;94.00
45283;DHT22;31023;44.994;1.796;2024-03-23T04:29:13;11.30;94.10
45283;DHT22;31023;44.994;1.796;2024-03-23T04:31:39;11.40;93.90
45283;DHT22;31023;44.994;1.796;2024-03-23T04:34:04;11.30;93.90
45283;DHT22;31023;44.994;1.796;2024-03-23T04:36:30;11.30;93.80
45283;DHT22;31023;44.994;1.796;2024-03-23T04:38:56;11.40;93.80
45283;DHT22;31023;44.994;1.796;2024-03-23T04:41:22;11.50;93.90
45283;DHT22;31023;44.994;1.796;2024-03-23T04:43:47;11.30;94.00
45283;DHT22;31023;44.994;1.796;2024-03-23T04:46:13;11.40;94.30
45283;DHT22;31023;44.994;1.796;2024-03-23T04:48:38;11.20;94.60
45283;DHT22;31023;44.994;1.796;2024-03-23T04:51:04;11.10;95.20
45283;DHT22;31023;44.994;1.796;2024-03-23T04:53:30;11.10;95.30
45283;DHT22;31023;44.994;1.796;2024-03-23T04:55:55;11.10;95.50
45283;DHT22;31023;44.994;1.796;2024-03-23T04:58:22;11.20;95.70
45283;DHT22;31023;44.994;1.796;2024-03-23T05:00:52;11.10;96.00
45283;DHT22;31023;44.994;1.796;2024-03-23T05:03:18;10.80;96.50
45283;DHT22;31023;44.994;1.796;2024-03-23T05:05:44;11.10;95.90
45283;DHT22;31023;44.994;1.796;2024-03-23T05:08:10;11.00;96.20
45283;DHT22;31023;44.994;1.796;2024-03-23T05:10:35;11.00;96.10
45283;DHT22;31023;44.994;1.796;2024-03-23T05:13:01;11.20;96.00
45283;DHT22;31023;44.994;1.796;2024-03-23T05:15:26;11.00;96.10
45283;DHT22;31023;44.994;1.796;2024-03-23T05:17:52;10.90;94.80
45283;DHT22;31023;44.994;1.796;2024-03-23T05:20:19;10.70;93.20
45283;DHT22;31023;44.994;1.796;2024-03-23T05:22:45;10.70;92.40
45283;DHT22;31023;44.994;1.796;2024-03-23T05:25:10;10.50;91.60
45283;DHT22;31023;44.994;1.796;2024-03-23T05:27:36;10.30;90.60
45283;DHT22;31023;44.994;1.796;2024-03-23T05:30:02;10.10;90.50
45283;DHT22;31023;44.994;1.796;2024-03-23T05:32:29;10.10;90.50
45283;DHT22;31023;44.994;1.796;2024-03-23T05:34:54;10.00;90.40
45283;DHT22;31023;44.994;1.796;2024-03-23T05:37:23;9.80;90.10
45283;DHT22;31023;44.994;1.796;2024-03-23T05:39:49;9.90;90.10
45283;DHT22;31023;44.994;1.796;2024-03-23T05:42:17;9.90;89.50
45283;DHT22;31023;44.994;1.796;2024-03-23T05:44:44;9.90;88.10
45283;DHT22;31023;44.994;1.796;2024-03-23T05:47:09;9.70;88.00
45283;DHT22;31023;44.994;1.796;2024-03-23T05:49:35;9.80;88.20
45283;DHT22;31023;44.994;1.796;2024-03-23T05:52:00;9.70;87.70
45283;DHT22;31023;44.994;1.796;2024-03-23T05:54:29;9.80;88.00
45283;DHT22;31023;44.994;1.796;2024-03-23T05:56:54;9.80;87.90
45283;DHT22;31023;44.994;1.796;2024-03-23T05:59:20;9.60;87.00
45283;DHT22;31023;44.994;1.796;2024-03-23T06:01:46;9.60;86.70
45283;DHT22;31023;44.994;1.796;2024-03-23T06:04:12;9.70;86.90
45283;DHT22;31023;44.994;1.796;2024-03-23T06:06:39;10.00;85.90
45283;DHT22;31023;44.994;1.796;2024-03-23T06:09:04;10.10;85.20
45283;DHT22;31023;44.994;1.796;2024-03-23T06:11:30;10.20;84.60
45283;DHT22;31023;44.994;1.796;2024-03-23T06:13:55;10.30;84.70
45283;DHT22;31023;44.994;1.796;2024-03-23T06:16:21;10.20;83.40
45283;DHT22;31023;44.994;1.796;2024-03-23T06:18:49;10.10;82.40
45283;DHT22;31023;44.994;1.796;2024-03-23T06:21:15;10.00;81.80
45283;DHT22;31023;44.994;1.796;2024-03-23T06:23:41;10.10;81.20
45283;DHT22;31023;44.994;1.796;2024-03-23T06:26:07;10.00;80.70
45283;DHT22;31023;44.994;1.796;2024-03-23T06:28:32;10.10;81.20
45283;DHT22;31023;44.994;1.796;2024-03-23T06:30:58;9.90;79.70
45283;DHT22;31023;44.994;1.796;2024-03-23T06:33:23;9.70;80.30
45283;DHT22;31023;44.994;1.796;2024-03-23T06:35:50;9.40;80.30
45283;DHT22;31023;44.994;1.796;2024-03-23T06:38:15;9.20;80.70
45283;DHT22;31023;44.994;1.796;2024-03-23T06:40:41;9.60;79.90
45283;DHT22;31023;44.994;1.796;2024-03-23T06:43:06;11.40;74.20
45283;DHT22;31023;44.994;1.796;2024-03-23T06:45:32;12.40;70.60
45283;DHT22;31023;44.994;1.796;2024-03-23T06:47:57;12.10;67.30
45283;DHT22;31023;44.994;1.796;2024-03-23T06:50:23;12.40;68.80
45283;DHT22;31023;44.994;1.796;2024-03-23T06:52:49;11.50;69.30
45283;DHT22;31023;44.994;1.796;2024-03-23T06:55:15;12.50;66.70
45283;DHT22;31023;44.994;1.796;2024-03-23T06:57:40;14.00;63.00
45283;DHT22;31023;44.994;1.796;2024-03-23T07:00:06;14.60;59.80
45283;DHT22;31023;44.994;1.796;2024-03-23T07:02:35;14.30;60.00
45283;DHT22;31023;44.994;1.796;2024-03-23T07:05:00;14.80;58.90
45283;DHT22;31023;44.994;1.796;2024-03-23T07:07:26;15.80;58.10
45283;DHT22;31023;44.994;1.796;2024-03-23T07:09:52;16.10;55.20
45283;DHT22;31023;44.994;1.796;2024-03-23T07:12:18;16.50;56.50
45283;DHT22;31023;44.994;1.796;2024-03-23T07:14:43;16.60;55.00
45283;DHT22;31023;44.994;1.796;2024-03-23T07:17:09;15.10;56.80
45283;DHT22;31023;44.994;1.796;2024-03-23T07:19:34;13.60;61.80
45283;DHT22;31023;44.994;1.796;2024-03-23T07:22:00;14.20;59.30
45283;DHT22;31023;44.994;1.796;2024-03-23T07:24:25;15.40;58.50
45283;DHT22;31023;44.994;1.796;2024-03-23T07:26:51;15.60;57.10
45283;DHT22;31023;44.994;1.796;2024-03-23T07:29:19;17.30;54.60
45283;DHT22;31023;44.994;1.796;2024-03-23T07:31:45;18.20;53.00
45283;DHT22;31023;44.994;1.796;2024-03-23T07:34:10;17.90;51.80
45283;DHT22;31023;44.994;1.796;2024-03-23T07:36:36;17.00;53.80
45283;DHT22;31023;44.994;1.796;2024-03-23T07:39:01;14.70;57.60
45283;DHT22;31023;44.994;1.796;2024-03-23T07:41:27;14.10;58.70
45283;DHT22;31023;44.994;1.796;2024-03-23T07:43:53;12.90;60.80
45283;DHT22;31023;44.994;1.796;2024-03-23T07:46:20;12.80;60.60
45283;DHT22;31023;44.994;1.796;2024-03-23T07:48:45;12.50;60.30
45283;DHT22;31023;44.994;1.796;2024-03-23T07:51:15;12.40;63.10
45283;DHT22;31023;44.994;1.796;2024-03-23T07:53:42;12.40;62.90
45283;DHT22;31023;44.994;1.796;2024-03-23T07:56:08;11.80;63.60
45283;DHT22;31023;44.994;1.796;2024-03-23T07:58:38;11.80;63.90
45283;DHT22;31023;44.994;1.796;2024-03-23T08:01:09;15.80;54.70
45283;DHT22;31023;44.994;1.796;2024-03-23T08:03:40;17.40;52.60
45283;DHT22;31023;44.994;1.796;2024-03-23T08:06:16;17.70;51.90
45283;DHT22;31023;44.994;1.796;2024-03-23T08:08:42;18.70;48.60
45283;DHT22;31023;44.994;1.796;2024-03-23T08:11:08;19.90;48.60
45283;DHT22;31023;44.994;1.796;2024-03-23T08:13:34;19.90;44.90
45283;DHT22;31023;44.994;1.796;2024-03-23T08:16:00;19.30;43.90
45283;DHT22;31023;44.994;1.796;2024-03-23T08:18:26;19.40;43.20
45283;DHT22;31023;44.994;1.796;2024-03-23T08:23:33;19.50;41.10
45283;DHT22;31023;44.994;1.796;2024-03-23T08:26:02;19.90;41.90
45283;DHT22;31023;44.994;1.796;2024-03-23T08:28:28;19.90;40.50
45283;DHT22;31023;44.994;1.796;2024-03-23T08:30:54;19.80;38.40
45283;DHT22;31023;44.994;1.796;2024-03-23T08:33:20;20.40;39.20
45283;DHT22;31023;44.994;1.796;2024-03-23T08:35:58;19.90;37.90
45283;DHT22;31023;44.994;1.796;2024-03-23T08:38:24;20.60;38.80
45283;DHT22;31023;44.994;1.796;2024-03-23T08:41:00;20.40;34.10
45283;DHT22;31023;44.994;1.796;2024-03-23T08:43:26;20.70;35.50
45283;DHT22;31023;44.994;1.796;2024-03-23T08:45:52;21.60;37.40
45283;DHT22;31023;44.994;1.796;2024-03-23T08:48:18;21.90;37.40
45283;DHT22;31023;44.994;1.796;2024-03-23T08:50:46;21.30;38.90
45283;DHT22;31023;44.994;1.796;2024-03-23T08:53:11;22.00;37.00
45283;DHT22;31023;44.994;1.796;2024-03-23T08:55:37;23.10;36.10
45283;DHT22;31023;44.994;1.796;2024-03-23T08:58:02;17.40;41.30
45283;DHT22;31023;44.994;1.796;2024-03-23T09:00:29;16.80;44.20
45283;DHT22;31023;44.994;1.796;2024-03-23T09:02:55;15.70;45.00
45283;DHT22;31023;44.994;1.796;2024-03-23T09:05:22;17.40;46.30
45283;DHT22;31023;44.994;1.796;2024-03-23T09:07:49;16.60;46.20
45283;DHT22;31023;44.994;1.796;2024-03-23T09:10:15;16.30;45.80
45283;DHT22;31023;44.994;1.796;2024-03-23T09:12:40;16.50;47.20
45283;DHT22;31023;44.994;1.796;2024-03-23T09:15:06;20.10;41.30
45283;DHT22;31023;44.994;1.796;2024-03-23T09:17:31;21.30;37.40
45283;DHT22;31023;44.994;1.796;2024-03-23T09:19:57;21.50;35.90
45283;DHT22;31023;44.994;1.796;2024-03-23T09:22:23;19.00;38.90
45283;DHT22;31023;44.994;1.796;2024-03-23T09:24:48;20.70;41.10
45283;DHT22;31023;44.994;1.796;2024-03-23T09:27:14;21.60;39.30
45283;DHT22;31023;44.994;1.796;2024-03-23T09:29:39;22.00;38.50
45283;DHT22;31023;44.994;1.796;2024-03-23T09:32:05;21.50;37.90
45283;DHT22;31023;44.994;1.796;2024-03-23T09:34:31;22.60;35.60
45283;DHT22;31023;44.994;1.796;2024-03-23T09:36:56;22.90;33.40
45283;DHT22;31023;44.994;1.796;2024-03-23T09:39:22;22.50;33.70
45283;DHT22;31023;44.994;1.796;2024-03-23T09:41:47;22.40;36.40
45283;DHT22;31023;44.994;1.796;2024-03-23T09:44:13;22.10;30.30
45283;DHT22;31023;44.994;1.796;2024-03-23T09:46:38;24.00;31.50
45283;DHT22;31023;44.994;1.796;2024-03-23T09:49:05;22.80;27.40
45283;DHT22;31023;44.994;1.796;2024-03-23T09:51:35;22.90;31.60
45283;DHT22;31023;44.994;1.796;2024-03-23T09:54:00;22.90;29.30
45283;DHT22;31023;44.994;1.796;2024-03-23T09:56:26;23.30;30.00
45283;DHT22;31023;44.994;1.796;2024-03-23T09:58:52;23.30;32.50
45283;DHT22;31023;44.994;1.796;2024-03-23T10:01:25;23.40;32.60
45283;DHT22;31023;44.994;1.796;2024-03-23T10:03:50;22.30;31.80
45283;DHT22;31023;44.994;1.796;2024-03-23T10:06:16;20.60;34.10
45283;DHT22;31023;44.994;1.796;2024-03-23T10:08:46;19.80;33.80
45283;DHT22;31023;44.994;1.796;2024-03-23T10:11:16;19.80;35.00
45283;DHT22;31023;44.994;1.796;2024-03-23T10:13:42;19.30;35.50
45283;DHT22;31023;44.994;1.796;2024-03-23T10:16:08;18.40;36.50
45283;DHT22;31023;44.994;1.796;2024-03-23T10:18:37;18.10;38.40
45283;DHT22;31023;44.994;1.796;2024-03-23T10:23:32;17.10;37.00
45283;DHT22;31023;44.994;1.796;2024-03-23T10:29:00;17.70;38.50
45283;DHT22;31023;44.994;1.796;2024-03-23T10:31:33;16.50;43.10
45283;DHT22;31023;44.994;1.796;2024-03-23T10:33:59;17.20;40.20
45283;DHT22;31023;44.994;1.796;2024-03-23T10:36:26;17.10;42.20
45283;DHT22;31023;44.994;1.796;2024-03-23T10:38:52;17.20;40.20
45283;DHT22;31023;44.994;1.796;2024-03-23T10:41:20;16.30;42.60
45283;DHT22;31023;44.994;1.796;2024-03-23T10:43:46;16.00;42.60
45283;DHT22;31023;44.994;1.796;2024-03-23T10:46:12;16.80;39.90
45283;DHT22;31023;44.994;1.796;2024-03-23T10:48:37;16.80;41.30
45283;DHT22;31023;44.994;1.796;2024-03-23T10:51:03;16.10;43.30
45283;DHT22;31023;44.994;1.796;2024-03-23T10:53:29;15.90;43.20
45283;DHT22;31023;44.994;1.796;2024-03-23T10:55:55;16.50;43.20
45283;DHT22;31023;44.994;1.796;2024-03-23T10:58:24;15.80;44.10
45283;DHT22;31023;44.994;1.796;2024-03-23T11:00:52;14.80;44.60
45283;DHT22;31023;44.994;1.796;2024-03-23T11:03:37;15.50;45.30
45283;DHT22;31023;44.994;1.796;2024-03-23T11:06:04;15.60;44.10
45283;DHT22;31023;44.994;1.796;2024-03-23T11:08:30;15.30;41.40
45283;DHT22;31023;44.994;1.796;2024-03-23T11:11:12;15.30;41.60
45283;DHT22;31023;44.994;1.796;2024-03-23T11:13:38;15.50;43.40
45283;DHT22;31023;44.994;1.796;2024-03-23T11:16:16;15.10;43.10
45283;DHT22;31023;44.994;1.796;2024-03-23T11:18:42;15.30;47.40
45283;DHT22;31023;44.994;1.796;2024-03-23T11:21:09;15.30;43.10
45283;DHT22;31023;44.994;1.796;2024-03-23T11:23:34;14.90;40.30
45283;DHT22;31023;44.994;1.796;2024-03-23T11:26:00;15.30;47.30
45283;DHT22;31023;44.994;1.796;2024-03-23T11:28:26;15.20;45.30
45283;DHT22;31023;44.994;1.796;2024-03-23T11:30:51;15.30;45.80
45283;DHT22;31023;44.994;1.796;2024-03-23T11:33:17;15.20;45.20
45283;DHT22;31023;44.994;1.796;2024-03-23T11:35:42;15.00;44.00
45283;DHT22;31023;44.994;1.796;2024-03-23T11:38:09;14.70;43.60
45283;DHT22;31023;44.994;1.796;2024-03-23T11:40:50;14.30;46.10
45283;DHT22;31023;44.994;1.796;2024-03-23T11:43:16;14.90;43.70
45283;DHT22;31023;44.994;1.796;2024-03-23T11:45:46;14.90;43.70
45283;DHT22;31023;44.994;1.796;2024-03-23T11:48:12;14.50;40.00
45283;DHT22;31023;44.994;1.796;2024-03-23T11:50:43;14.90;44.30
45283;DHT22;31023;44.994;1.796;2024-03-23T11:55:38;14.90;50.50
45283;DHT22;31023;44.994;1.796;2024-03-23T11:58:04;14.50;43.30
45283;DHT22;31023;44.994;1.796;2024-03-23T12:00:29;14.10;43.90
45283;DHT22;31023;44.994;1.796;2024-03-23T12:03:04;13.70;44.20
45283;DHT22;31023;44.994;1.796;2024-03-23T12:05:29;14.40;46.70
45283;DHT22;31023;44.994;1.796;2024-03-23T12:07:55;14.90;46.00
45283;DHT22;31023;44.994;1.796;2024-03-23T12:10:40;15.00;47.50
45283;DHT22;31023;44.994;1.796;2024-03-23T12:13:05;14.40;43.30
45283;DHT22;31023;44.994;1.796;2024-03-23T12:15:31;14.50;45.50
45283;DHT22;31023;44.994;1.796;2024-03-23T12:18:07;14.50;46.70
45283;DHT22;31023;44.994;1.796;2024-03-23T12:20:32;14.20;46.40
45283;DHT22;31023;44.994;1.796;2024-03-23T12:23:11;14.00;50.60
45283;DHT22;31023;44.994;1.796;2024-03-23T12:25:37;14.00;49.20
45283;DHT22;31023;44.994;1.796;2024-03-23T12:28:03;14.10;48.40
45283;DHT22;31023;44.994;1.796;2024-03-23T12:30:35;14.50;49.20
45283;DHT22;31023;44.994;1.796;2024-03-23T12:33:01;14.40;50.50
45283;DHT22;31023;44.994;1.796;2024-03-23T12:35:26;14.50;48.90
45283;DHT22;31023;44.994;1.796;2024-03-23T12:37:52;14.50;48.40
45283;DHT22;31023;44.994;1.796;2024-03-23T12:40:17;14.10;46.50
45283;DHT22;31023;44.994;1.796;2024-03-23T12:42:43;14.40;49.00
45283;DHT22;31023;44.994;1.796;2024-03-23T12:45:08;14.30;51.00
45283;DHT22;31023;44.994;1.796;2024-03-23T12:47:34;14.20;50.00
45283;DHT22;31023;44.994;1.796;2024-03-23T12:50:00;14.00;49.30
45283;DHT22;31023;44.994;1.796;2024-03-23T12:52:25;13.80;47.10
45283;DHT22;31023;44.994;1.796;2024-03-23T12:54:56;13.40;47.20
45283;DHT22;31023;44.994;1.796;2024-03-23T12:57:23;13.40;47.60
45283;DHT22;31023;44.994;1.796;2024-03-23T12:59:49;13.80;47.50
45283;DHT22;31023;44.994;1.796;2024-03-23T13:02:19;13.70;46.20
45283;DHT22;31023;44.994;1.796;2024-03-23T13:04:51;13.70;45.80
45283;DHT22;31023;44.994;1.796;2024-03-23T13:07:17;13.50;42.80
45283;DHT22;31023;44.994;1.796;2024-03-23T13:09:43;13.50;43.50
45283;DHT22;31023;44.994;1.796;2024-03-23T13:12:09;14.00;48.40
45283;DHT22;31023;44.994;1.796;2024-03-23T13:14:34;14.30;46.20
45283;DHT22;31023;44.994;1.796;2024-03-23T13:17:00;13.80;47.20
45283;DHT22;31023;44.994;1.796;2024-03-23T13:19:26;14.00;46.90
45283;DHT22;31023;44.994;1.796;2024-03-23T13:21:54;14.00;46.80
45283;DHT22;31023;44.994;1.796;2024-03-23T13:24:23;13.90;48.00
45283;DHT22;31023;44.994;1.796;2024-03-23T13:26:50;13.30;47.90
45283;DHT22;31023;44.994;1.796;2024-03-23T13:29:15;13.20;47.10
45283;DHT22;31023;44.994;1.796;2024-03-23T13:31:41;13.10;48.70
45283;DHT22;31023;44.994;1.796;2024-03-23T13:34:07;13.60;49.40
45283;DHT22;31023;44.994;1.796;2024-03-23T13:36:32;13.70;47.30
45283;DHT22;31023;44.994;1.796;2024-03-23T13:38:58;13.90;48.60
45283;DHT22;31023;44.994;1.796;2024-03-23T13:41:23;14.30;47.30
45283;DHT22;31023;44.994;1.796;2024-03-23T13:43:49;14.20;49.30
45283;DHT22;31023;44.994;1.796;2024-03-23T13:46:15;13.80;47.20
45283;DHT22;31023;44.994;1.796;2024-03-23T13:48:40;13.10;47.60
45283;DHT22;31023;44.994;1.796;2024-03-23T13:51:07;13.40;47.60
45283;DHT22;31023;44.994;1.796;2024-03-23T13:53:33;13.40;47.50
45283;DHT22;31023;44.994;1.796;2024-03-23T13:55:58;13.20;47.50
45283;DHT22;31023;44.994;1.796;2024-03-23T13:58:24;13.40;46.50
45283;DHT22;31023;44.994;1.796;2024-03-23T14:00:52;13.30;48.20
45283;DHT22;31023;44.994;1.796;2024-03-23T14:03:18;13.40;47.80
45283;DHT22;31023;44.994;1.796;2024-03-23T14:05:43;13.30;46.40
45283;DHT22;31023;44.994;1.796;2024-03-23T14:08:10;13.30;47.70
45283;DHT22;31023;44.994;1.796;2024-03-23T14:10:35;13.50;47.00
45283;DHT22;31023;44.994;1.796;2024-03-23T14:13:02;13.50;45.30
45283;DHT22;31023;44.994;1.796;2024-03-23T14:15:28;13.70;47.90
45283;DHT22;31023;44.994;1.796;2024-03-23T14:17:55;13.80;47.10
45283;DHT22;31023;44.994;1.796;2024-03-23T14:20:21;13.80;47.80
45283;DHT22;31023;44.994;1.796;2024-03-23T14:22:47;13.80;47.40
45283;DHT22;31023;44.994;1.796;2024-03-23T14:25:12;13.60;49.50
45283;DHT22;31023;44.994;1.796;2024-03-23T14:27:38;13.30;44.30
45283;DHT22;31023;44.994;1.796;2024-03-23T14:30:04;13.40;47.40
45283;DHT22;31023;44.994;1.796;2024-03-23T14:32:30;13.50;47.00
45283;DHT22;31023;44.994;1.796;2024-03-23T14:35:00;13.50;45.80
45283;DHT22;31023;44.994;1.796;2024-03-23T14:37:25;13.40;46.30
45283;DHT22;31023;44.994;1.796;2024-03-23T14:39:51;13.20;47.80
45283;DHT22;31023;44.994;1.796;2024-03-23T14:42:16;13.60;48.00
45283;DHT22;31023;44.994;1.796;2024-03-23T14:44:42;13.40;47.60
45283;DHT22;31023;44.994;1.796;2024-03-23T14:47:07;12.80;46.90
45283;DHT22;31023;44.994;1.796;2024-03-23T14:49:33;13.00;46.80
45283;DHT22;31023;44.994;1.796;2024-03-23T14:51:59;13.20;44.10
45283;DHT22;31023;44.994;1.796;2024-03-23T14:54:24;13.20;46.10
45283;DHT22;31023;44.994;1.796;2024-03-23T14:56:50;13.30;45.80
45283;DHT22;31023;44.994;1.796;2024-03-23T14:59:15;13.40;45.10
45283;DHT22;31023;44.994;1.796;2024-03-23T15:01:41;13.30;44.90
45283;DHT22;31023;44.994;1.796;2024-03-23T15:04:07;13.40;46.90
45283;DHT22;31023;44.994;1.796;2024-03-23T15:06:33;13.40;47.40
45283;DHT22;31023;44.994;1.796;2024-03-23T15:08:59;13.40;46.50
45283;DHT22;31023;44.994;1.796;2024-03-23T15:11:24;13.40;46.60
45283;DHT22;31023;44.994;1.796;2024-03-23T15:13:50;13.30;45.10
45283;DHT22;31023;44.994;1.796;2024-03-23T15:16:18;13.50;45.60
45283;DHT22;31023;44.994;1.796;2024-03-23T15:18:45;14.00;48.20
45283;DHT22;31023;44.994;1.796;2024-03-23T15:21:11;14.00;46.60
45283;DHT22;31023;44.994;1.796;2024-03-23T15:23:37;14.30;47.90
45283;DHT22;31023;44.994;1.796;2024-03-23T15:26:02;13.80;49.10
45283;DHT22;31023;44.994;1.796;2024-03-23T15:28:28;13.50;46.60
45283;DHT22;31023;44.994;1.796;2024-03-23T15:31:05;13.50;48.10
45283;DHT22;31023;44.994;1.796;2024-03-23T15:33:30;13.00;47.70
45283;DHT22;31023;44.994;1.796;2024-03-23T15:35:59;13.20;47.60
45283;DHT22;31023;44.994;1.796;2024-03-23T15:38:24;12.80;47.50
45283;DHT22;31023;44.994;1.796;2024-03-23T15:40:51;12.70;47.70
45283;DHT22;31023;44.994;1.796;2024-03-23T15:43:16;12.80;48.60
45283;DHT22;31023;44.994;1.796;2024-03-23T15:45:42;12.50;48.30
45283;DHT22;31023;44.994;1.796;2024-03-23T15:48:07;12.40;48.70
45283;DHT22;31023;44.994;1.796;2024-03-23T15:50:33;12.50;49.70
45283;DHT22;31023;44.994;1.796;2024-03-23T15:52:58;13.00;49.30
45283;DHT22;31023;44.994;1.796;2024-03-23T15:55:24;13.30;47.40
45283;DHT22;31023;44.994;1.796;2024-03-23T15:57:50;13.00;49.20
45283;DHT22;31023;44.994;1.796;2024-03-23T16:00:16;12.80;50.30
45283;DHT22;31023;44.994;1.796;2024-03-23T16:02:41;12.60;50.20
45283;DHT22;31023;44.994;1.796;2024-03-23T16:05:08;12.90;50.20
45283;DHT22;31023;44.994;1.796;2024-03-23T16:07:36;12.70;49.30
45283;DHT22;31023;44.994;1.796;2024-03-23T16:10:02;12.80;50.90
45283;DHT22;31023;44.994;1.796;2024-03-23T16:12:32;12.90;50.20
45283;DHT22;31023;44.994;1.796;2024-03-23T16:14:58;12.90;49.40
45283;DHT22;31023;44.994;1.796;2024-03-23T16:17:23;13.00;49.90
45283;DHT22;31023;44.994;1.796;2024-03-23T16:19:49;13.00;49.30
45283;DHT22;31023;44.994;1.796;2024-03-23T16:22:14;12.90;50.10
45283;DHT22;31023;44.994;1.796;2024-03-23T16:24:40;12.80;50.20
45283;DHT22;31023;44.994;1.796;2024-03-23T16:27:05;12.70;49.60
45283;DHT22;31023;44.994;1.796;2024-03-23T16:29:31;12.80;48.10
45283;DHT22;31023;44.994;1.796;2024-03-23T16:31:56;12.60;48.00